sensor_id;sensor_type;location;lat;lon;timestamp;temperature;humidity
18083;DHT22;9168;51.194;6.840;2023-07-08T00:02:09;21.20;99.90
18083;DHT22;9168;51.194;6.840;2023-07-08T00:04:37;21.20;99.90
18083;DHT22;9168;51.194;6.840;2023-07-08T00:07:04;21.20;99.90
18083;DHT22;9168;51.194;6.840;2023-07-08T00:09:31;21.10;99.90
18083;DHT22;9168;51.194;6.840;2023-07-08T00:11:58;21.10;99.90
18083;DHT22;9168;51.194;6.840;2023-07-08T00:14:25;21.10;99.90
18083;DHT22;9168;51.194;6.840;2023-07-08T00:16:52;21.10;99.90
18083;DHT22;9168;51.194;6.840;2023-07-08T00:19:20;21.10;99.90
18083;DHT22;9168;51.194;6.840;2023-07-08T00:21:50;21.10;99.90
18083;DHT22;9168;51.194;6.840;2023-07-08T00:24:18;21.10;99.90
18083;DHT22;9168;51.194;6.840;2023-07-08T00:26:45;21.10;99.90
18083;DHT22;9168;51.194;6.840;2023-07-08T00:29:12;21.00;99.90
18083;DHT22;9168;51.194;6.840;2023-07-08T00:31:39;21.00;99.90
18083;DHT22;9168;51.194;6.840;2023-07-08T00:34:06;21.00;99.90
18083;DHT22;9168;51.194;6.840;2023-07-08T00:36:35;21.00;99.90
18083;DHT22;9168;51.194;6.840;2023-07-08T00:39:02;21.00;99.90
18083;DHT22;9168;51.194;6.840;2023-07-08T00:41:32;21.00;99.90
18083;DHT22;9168;51.194;6.840;2023-07-08T00:44:00;21.00;99.90
18083;DHT22;9168;51.194;6.840;2023-07-08T00:46:41;20.90;99.90
18083;DHT22;9168;51.194;6.840;2023-07-08T00:49:23;20.90;99.90
18083;DHT22;9168;51.194;6.840;2023-07-08T00:51:52;20.90;99.90
18083;DHT22;9168;51.194;6.840;2023-07-08T00:54:21;20.80;99.90
18083;DHT22;9168;51.194;6.840;2023-07-08T00:56:51;20.80;99.90
18083;DHT22;9168;51.194;6.840;2023-07-08T00:59:22;20.70;99.90
18083;DHT22;9168;51.194;6.840;2023-07-08T01:01:51;20.80;99.90
18083;DHT22;9168;51.194;6.840;2023-07-08T01:04:24;20.70;99.90
18083;DHT22;9168;51.194;6.840;2023-07-08T01:06:55;20.70;99.90
18083;DHT22;9168;51.194;6.840;2023-07-08T01:09:26;20.70;99.90
18083;DHT22;9168;51.194;6.840;2023-07-08T01:11:54;20.70;99.90
18083;DHT22;9168;51.194;6.840;2023-07-08T01:14:24;20.60;99.90
18083;DHT22;9168;51.194;6.840;2023-07-08T01:16:53;20.60;99.90
18083;DHT22;9168;51.194;6.840;2023-07-08T01:19:21;20.50;99.90
18083;DHT22;9168;51.194;6.840;2023-07-08T01:22:03;20.50;99.90
18083;DHT22;9168;51.194;6.840;2023-07-08T01:24:31;20.50;99.90
18083;DHT22;9168;51.194;6.840;2023-07-08T01:27:01;20.40;99.90
18083;DHT22;9168;51.194;6.840;2023-07-08T01:29:29;20.40;99.90
18083;DHT22;9168;51.194;6.840;2023-07-08T01:31:57;20.40;99.90
18083;DHT22;9168;51.194;6.840;2023-07-08T01:34:24;20.40;99.90
18083;DHT22;9168;51.194;6.840;2023-07-08T01:36:54;20.40;99.90
18083;DHT22;9168;51.194;6.840;2023-07-08T01:39:25;20.40;99.90
18083;DHT22;9168;51.194;6.840;2023-07-08T01:41:52;20.30;99.90
18083;DHT22;9168;51.194;6.840;2023-07-08T01:44:27;20.30;99.90
18083;DHT22;9168;51.194;6.840;2023-07-08T01:46:56;20.30;99.90
18083;DHT22;9168;51.194;6.840;2023-07-08T01:49:24;20.20;99.90
18083;DHT22;9168;51.194;6.840;2023-07-08T01:51:52;20.20;99.90
18083;DHT22;9168;51.194;6.840;2023-07-08T01:54:19;20.20;99.90
18083;DHT22;9168;51.194;6.840;2023-07-08T01:56:47;20.20;99.90
18083;DHT22;9168;51.194;6.840;2023-07-08T01:59:17;20.20;99.90
18083;DHT22;9168;51.194;6.840;2023-07-08T02:01:44;20.20;99.90
18083;DHT22;9168;51.194;6.840;2023-07-08T02:04:12;20.10;99.90
18083;DHT22;9168;51.194;6.840;2023-07-08T02:06:39;20.10;99.90
18083;DHT22;9168;51.194;6.840;2023-07-08T02:09:07;20.10;99.90
18083;DHT22;9168;51.194;6.840;2023-07-08T02:11:34;20.10;99.90
18083;DHT22;9168;51.194;6.840;2023-07-08T02:14:02;20.10;99.90
18083;DHT22;9168;51.194;6.840;2023-07-08T02:16:29;20.10;99.90
18083;DHT22;9168;51.194;6.840;2023-07-08T02:18:56;20.10;99.90
18083;DHT22;9168;51.194;6.840;2023-07-08T02:21:23;20.10;99.90
18083;DHT22;9168;51.194;6.840;2023-07-08T02:23:52;20.00;99.90
18083;DHT22;9168;51.194;6.840;2023-07-08T02:26:18;20.00;99.90
18083;DHT22;9168;51.194;6.840;2023-07-08T02:28:45;20.00;99.90
18083;DHT22;9168;51.194;6.840;2023-07-08T02:31:14;20.00;99.90
18083;DHT22;9168;51.194;6.840;2023-07-08T02:33:41;20.00;99.90
18083;DHT22;9168;51.194;6.840;2023-07-08T02:36:07;19.90;99.90
18083;DHT22;9168;51.194;6.840;2023-07-08T02:38:34;19.90;99.90
18083;DHT22;9168;51.194;6.840;2023-07-08T02:41:04;19.90;99.90
18083;DHT22;9168;51.194;6.840;2023-07-08T02:43:30;19.90;99.90
18083;DHT22;9168;51.194;6.840;2023-07-08T02:45:57;19.80;99.90
18083;DHT22;9168;51.194;6.840;2023-07-08T02:48:26;19.80;99.90
18083;DHT22;9168;51.194;6.840;2023-07-08T02:50:59;19.70;99.90
18083;DHT22;9168;51.194;6.840;2023-07-08T02:53:26;19.80;99.90
18083;DHT22;9168;51.194;6.840;2023-07-08T02:55:53;19.70;99.90
18083;DHT22;9168;51.194;6.840;2023-07-08T02:58:20;19.70;99.90
18083;DHT22;9168;51.194;6.840;2023-07-08T03:00:51;19.70;99.90
18083;DHT22;9168;51.194;6.840;2023-07-08T03:03:18;19.70;99.90
18083;DHT22;9168;51.194;6.840;2023-07-08T03:05:55;19.70;99.90
18083;DHT22;9168;51.194;6.840;2023-07-08T03:08:22;19.70;99.90
18083;DHT22;9168;51.194;6.840;2023-07-08T03:10:55;19.70;99.90
18083;DHT22;9168;51.194;6.840;2023-07-08T03:13:22;19.70;99.90
18083;DHT22;9168;51.194;6.840;2023-07-08T03:15:50;19.60;99.90
18083;DHT22;9168;51.194;6.840;2023-07-08T03:18:17;19.60;99.90
18083;DHT22;9168;51.194;6.840;2023-07-08T03:20:44;19.60;99.90
18083;DHT22;9168;51.194;6.840;2023-07-08T03:23:13;19.50;99.90
18083;DHT22;9168;51.194;6.840;2023-07-08T03:25:40;19.50;99.90
18083;DHT22;9168;51.194;6.840;2023-07-08T03:28:08;19.50;99.90
18083;DHT22;9168;51.194;6.840;2023-07-08T03:30:41;19.50;99.90
18083;DHT22;9168;51.194;6.840;2023-07-08T03:33:08;19.50;99.90
18083;DHT22;9168;51.194;6.840;2023-07-08T03:35:35;19.50;99.90
18083;DHT22;9168;51.194;6.840;2023-07-08T03:38:04;19.50;99.90
18083;DHT22;9168;51.194;6.840;2023-07-08T03:40:32;19.50;99.90
18083;DHT22;9168;51.194;6.840;2023-07-08T03:42:59;19.50;99.90
18083;DHT22;9168;51.194;6.840;2023-07-08T03:45:26;19.50;99.90
18083;DHT22;9168;51.194;6.840;2023-07-08T03:47:53;19.40;99.90
18083;DHT22;9168;51.194;6.840;2023-07-08T03:50:22;19.40;99.90
18083;DHT22;9168;51.194;6.840;2023-07-08T03:52:51;19.40;99.90
18083;DHT22;9168;51.194;6.840;2023-07-08T03:55:19;19.40;99.90
18083;DHT22;9168;51.194;6.840;2023-07-08T03:57:47;19.40;99.90
18083;DHT22;9168;51.194;6.840;2023-07-08T04:00:15;19.40;99.90
18083;DHT22;9168;51.194;6.840;2023-07-08T04:02:43;19.40;99.90
18083;DHT22;9168;51.194;6.840;2023-07-08T04:05:13;19.40;99.90
18083;DHT22;9168;51.194;6.840;2023-07-08T04:07:41;19.30;99.90
18083;DHT22;9168;51.194;6.840;2023-07-08T04:10:08;19.30;99.90
18083;DHT22;9168;51.194;6.840;2023-07-08T04:12:35;19.30;99.90
18083;DHT22;9168;51.194;6.840;2023-07-08T04:15:06;19.30;99.90
18083;DHT22;9168;51.194;6.840;2023-07-08T04:17:35;19.30;99.90
18083;DHT22;9168;51.194;6.840;2023-07-08T04:20:02;19.30;99.90
18083;DHT22;9168;51.194;6.840;2023-07-08T04:22:29;19.30;99.90
18083;DHT22;9168;51.194;6.840;2023-07-08T04:24:56;19.30;99.90
18083;DHT22;9168;51.194;6.840;2023-07-08T04:27:23;19.20;99.90
18083;DHT22;9168;51.194;6.840;2023-07-08T04:29:50;19.20;99.90
18083;DHT22;9168;51.194;6.840;2023-07-08T04:32:18;19.10;99.90
18083;DHT22;9168;51.194;6.840;2023-07-08T04:34:45;19.10;99.90
18083;DHT22;9168;51.194;6.840;2023-07-08T04:37:12;19.10;99.90
18083;DHT22;9168;51.194;6.840;2023-07-08T04:39:39;19.00;99.90
18083;DHT22;9168;51.194;6.840;2023-07-08T04:42:06;19.00;99.90
18083;DHT22;9168;51.194;6.840;2023-07-08T04:44:33;19.00;99.90
18083;DHT22;9168;51.194;6.840;2023-07-08T04:47:00;19.00;99.90
18083;DHT22;9168;51.194;6.840;2023-07-08T04:49:29;19.00;99.90
18083;DHT22;9168;51.194;6.840;2023-07-08T04:51:59;19.00;99.90
18083;DHT22;9168;51.194;6.840;2023-07-08T04:54:27;19.10;99.90
18083;DHT22;9168;51.194;6.840;2023-07-08T04:56:54;19.10;99.90
18083;DHT22;9168;51.194;6.840;2023-07-08T04:59:23;19.10;99.90
18083;DHT22;9168;51.194;6.840;2023-07-08T05:01:50;19.00;99.90
18083;DHT22;9168;51.194;6.840;2023-07-08T05:04:20;19.00;99.90
18083;DHT22;9168;51.194;6.840;2023-07-08T05:06:49;19.00;99.90
18083;DHT22;9168;51.194;6.840;2023-07-08T05:09:16;19.00;99.90
18083;DHT22;9168;51.194;6.840;2023-07-08T05:11:43;19.00;99.90
18083;DHT22;9168;51.194;6.840;2023-07-08T05:14:11;19.00;99.90
18083;DHT22;9168;51.194;6.840;2023-07-08T05:16:38;19.00;99.90
18083;DHT22;9168;51.194;6.840;2023-07-08T05:19:06;19.00;99.90
18083;DHT22;9168;51.194;6.840;2023-07-08T05:21:33;19.10;99.90
18083;DHT22;9168;51.194;6.840;2023-07-08T05:24:01;19.10;99.90
18083;DHT22;9168;51.194;6.840;2023-07-08T05:26:28;19.20;99.90
18083;DHT22;9168;51.194;6.840;2023-07-08T05:28:55;19.30;99.90
18083;DHT22;9168;51.194;6.840;2023-07-08T05:31:22;19.40;99.90
18083;DHT22;9168;51.194;6.840;2023-07-08T05:33:49;19.50;99.90
18083;DHT22;9168;51.194;6.840;2023-07-08T05:36:16;19.60;99.90
18083;DHT22;9168;51.194;6.840;2023-07-08T05:38:43;19.70;99.90
18083;DHT22;9168;51.194;6.840;2023-07-08T05:41:11;19.70;99.90
18083;DHT22;9168;51.194;6.840;2023-07-08T05:43:38;19.80;99.90
18083;DHT22;9168;51.194;6.840;2023-07-08T05:46:05;19.90;99.90
18083;DHT22;9168;51.194;6.840;2023-07-08T05:48:32;20.00;99.90
18083;DHT22;9168;51.194;6.840;2023-07-08T05:50:59;20.00;99.90
18083;DHT22;9168;51.194;6.840;2023-07-08T05:53:26;20.00;99.90
18083;DHT22;9168;51.194;6.840;2023-07-08T05:55:53;20.10;99.90
18083;DHT22;9168;51.194;6.840;2023-07-08T05:58:21;20.10;99.90
18083;DHT22;9168;51.194;6.840;2023-07-08T06:00:55;20.20;99.90
18083;DHT22;9168;51.194;6.840;2023-07-08T06:03:22;20.30;99.90
18083;DHT22;9168;51.194;6.840;2023-07-08T06:05:49;20.40;99.90
18083;DHT22;9168;51.194;6.840;2023-07-08T06:08:16;20.40;99.90
18083;DHT22;9168;51.194;6.840;2023-07-08T06:10:43;20.50;99.90
18083;DHT22;9168;51.194;6.840;2023-07-08T06:13:10;20.60;99.90
18083;DHT22;9168;51.194;6.840;2023-07-08T06:15:39;20.80;99.90
18083;DHT22;9168;51.194;6.840;2023-07-08T06:18:06;21.00;99.90
18083;DHT22;9168;51.194;6.840;2023-07-08T06:20:33;21.10;99.90
18083;DHT22;9168;51.194;6.840;2023-07-08T06:23:00;21.20;99.90
18083;DHT22;9168;51.194;6.840;2023-07-08T06:25:27;21.40;99.90
18083;DHT22;9168;51.194;6.840;2023-07-08T06:27:54;21.60;99.90
18083;DHT22;9168;51.194;6.840;2023-07-08T06:30:21;21.60;99.90
18083;DHT22;9168;51.194;6.840;2023-07-08T06:32:49;21.80;99.90
18083;DHT22;9168;51.194;6.840;2023-07-08T06:35:16;22.00;99.90
18083;DHT22;9168;51.194;6.840;2023-07-08T06:37:43;22.10;99.90
18083;DHT22;9168;51.194;6.840;2023-07-08T06:40:11;22.20;99.90
18083;DHT22;9168;51.194;6.840;2023-07-08T06:42:38;22.30;99.90
18083;DHT22;9168;51.194;6.840;2023-07-08T06:45:05;22.40;99.90
18083;DHT22;9168;51.194;6.840;2023-07-08T06:47:32;22.40;99.90
18083;DHT22;9168;51.194;6.840;2023-07-08T06:50:01;22.50;99.90
18083;DHT22;9168;51.194;6.840;2023-07-08T06:52:28;22.50;99.90
18083;DHT22;9168;51.194;6.840;2023-07-08T06:54:59;22.70;99.90
18083;DHT22;9168;51.194;6.840;2023-07-08T06:57:27;22.80;99.90
18083;DHT22;9168;51.194;6.840;2023-07-08T06:59:53;22.90;99.90
18083;DHT22;9168;51.194;6.840;2023-07-08T07:02:20;23.00;99.90
18083;DHT22;9168;51.194;6.840;2023-07-08T07:04:47;23.10;99.90
18083;DHT22;9168;51.194;6.840;2023-07-08T07:07:15;23.20;99.90
18083;DHT22;9168;51.194;6.840;2023-07-08T07:09:42;23.20;99.90
18083;DHT22;9168;51.194;6.840;2023-07-08T07:12:09;23.30;99.90
18083;DHT22;9168;51.194;6.840;2023-07-08T07:14:36;23.40;99.90
18083;DHT22;9168;51.194;6.840;2023-07-08T07:17:03;23.50;99.90
18083;DHT22;9168;51.194;6.840;2023-07-08T07:19:30;23.60;99.90
18083;DHT22;9168;51.194;6.840;2023-07-08T07:21:57;23.60;99.90
18083;DHT22;9168;51.194;6.840;2023-07-08T07:24:25;23.80;99.90
18083;DHT22;9168;51.194;6.840;2023-07-08T07:26:52;23.90;99.90
18083;DHT22;9168;51.194;6.840;2023-07-08T07:29:22;24.00;99.90
18083;DHT22;9168;51.194;6.840;2023-07-08T07:31:49;24.00;99.90
18083;DHT22;9168;51.194;6.840;2023-07-08T07:34:17;24.10;99.90
18083;DHT22;9168;51.194;6.840;2023-07-08T07:36:44;24.30;99.90
18083;DHT22;9168;51.194;6.840;2023-07-08T07:39:10;24.40;99.90
18083;DHT22;9168;51.194;6.840;2023-07-08T07:41:39;24.50;99.90
18083;DHT22;9168;51.194;6.840;2023-07-08T07:44:06;24.70;99.90
18083;DHT22;9168;51.194;6.840;2023-07-08T07:46:32;24.80;99.90
18083;DHT22;9168;51.194;6.840;2023-07-08T07:48:59;24.90;99.90
18083;DHT22;9168;51.194;6.840;2023-07-08T07:51:26;25.00;99.90
18083;DHT22;9168;51.194;6.840;2023-07-08T07:53:53;25.10;99.90
18083;DHT22;9168;51.194;6.840;2023-07-08T07:56:20;25.20;99.90
18083;DHT22;9168;51.194;6.840;2023-07-08T07:58:48;25.10;99.90
18083;DHT22;9168;51.194;6.840;2023-07-08T08:01:15;25.20;99.90
18083;DHT22;9168;51.194;6.840;2023-07-08T08:03:42;25.20;99.70
18083;DHT22;9168;51.194;6.840;2023-07-08T08:06:09;25.40;99.60
18083;DHT22;9168;51.194;6.840;2023-07-08T08:08:36;25.40;99.40
18083;DHT22;9168;51.194;6.840;2023-07-08T08:11:03;25.40;99.90
18083;DHT22;9168;51.194;6.840;2023-07-08T08:13:30;25.40;99.60
18083;DHT22;9168;51.194;6.840;2023-07-08T08:15:59;25.50;99.50
18083;DHT22;9168;51.194;6.840;2023-07-08T08:18:26;25.50;99.90
18083;DHT22;9168;51.194;6.840;2023-07-08T08:20:53;25.60;99.90
18083;DHT22;9168;51.194;6.840;2023-07-08T08:23:20;25.60;99.90
18083;DHT22;9168;51.194;6.840;2023-07-08T08:25:46;25.70;99.90
18083;DHT22;9168;51.194;6.840;2023-07-08T08:28:13;25.80;99.10
18083;DHT22;9168;51.194;6.840;2023-07-08T08:30:40;25.90;99.00
18083;DHT22;9168;51.194;6.840;2023-07-08T08:33:08;25.90;99.90
18083;DHT22;9168;51.194;6.840;2023-07-08T08:35:35;26.00;98.80
18083;DHT22;9168;51.194;6.840;2023-07-08T08:38:03;26.10;98.70
18083;DHT22;9168;51.194;6.840;2023-07-08T08:40:31;26.20;99.10
18083;DHT22;9168;51.194;6.840;2023-07-08T08:43:01;26.30;99.20
18083;DHT22;9168;51.194;6.840;2023-07-08T08:45:32;26.30;99.90
18083;DHT22;9168;51.194;6.840;2023-07-08T08:48:03;26.40;99.30
18083;DHT22;9168;51.194;6.840;2023-07-08T08:50:36;26.50;98.80
18083;DHT22;9168;51.194;6.840;2023-07-08T08:53:11;26.60;98.00
18083;DHT22;9168;51.194;6.840;2023-07-08T08:55:39;26.70;97.10
18083;DHT22;9168;51.194;6.840;2023-07-08T08:58:15;26.70;96.50
18083;DHT22;9168;51.194;6.840;2023-07-08T09:00:50;26.70;97.00
18083;DHT22;9168;51.194;6.840;2023-07-08T09:03:32;26.80;96.60
18083;DHT22;9168;51.194;6.840;2023-07-08T09:06:09;26.80;97.30
18083;DHT22;9168;51.194;6.840;2023-07-08T09:08:37;26.70;97.50
18083;DHT22;9168;51.194;6.840;2023-07-08T09:11:14;26.70;96.50
18083;DHT22;9168;51.194;6.840;2023-07-08T09:13:43;26.70;96.50
18083;DHT22;9168;51.194;6.840;2023-07-08T09:16:18;26.80;96.80
18083;DHT22;9168;51.194;6.840;2023-07-08T09:18:57;26.80;97.00
18083;DHT22;9168;51.194;6.840;2023-07-08T09:21:30;27.00;96.50
18083;DHT22;9168;51.194;6.840;2023-07-08T09:24:03;27.20;95.70
18083;DHT22;9168;51.194;6.840;2023-07-08T09:26:31;27.40;95.40
18083;DHT22;9168;51.194;6.840;2023-07-08T09:28:58;27.60;95.60
18083;DHT22;9168;51.194;6.840;2023-07-08T09:31:27;27.70;95.80
18083;DHT22;9168;51.194;6.840;2023-07-08T09:34:06;27.60;95.70
18083;DHT22;9168;51.194;6.840;2023-07-08T09:36:39;27.70;96.50
18083;DHT22;9168;51.194;6.840;2023-07-08T09:39:10;27.80;95.90
18083;DHT22;9168;51.194;6.840;2023-07-08T09:41:39;27.80;95.80
18083;DHT22;9168;51.194;6.840;2023-07-08T09:44:16;28.00;95.20
18083;DHT22;9168;51.194;6.840;2023-07-08T09:46:44;28.10;95.60
18083;DHT22;9168;51.194;6.840;2023-07-08T09:49:20;28.10;94.80
18083;DHT22;9168;51.194;6.840;2023-07-08T09:51:50;28.00;95.10
18083;DHT22;9168;51.194;6.840;2023-07-08T09:54:19;28.10;94.90
18083;DHT22;9168;51.194;6.840;2023-07-08T09:56:54;28.20;95.60
18083;DHT22;9168;51.194;6.840;2023-07-08T09:59:26;28.30;95.60
18083;DHT22;9168;51.194;6.840;2023-07-08T10:01:54;28.50;95.00
18083;DHT22;9168;51.194;6.840;2023-07-08T10:04:22;28.50;94.30
18083;DHT22;9168;51.194;6.840;2023-07-08T10:06:50;28.70;93.80
18083;DHT22;9168;51.194;6.840;2023-07-08T10:09:21;28.80;94.30
18083;DHT22;9168;51.194;6.840;2023-07-08T10:11:53;28.90;93.60
18083;DHT22;9168;51.194;6.840;2023-07-08T10:14:26;29.00;94.00
18083;DHT22;9168;51.194;6.840;2023-07-08T10:16:53;29.20;93.80
18083;DHT22;9168;51.194;6.840;2023-07-08T10:19:21;29.30;93.60
18083;DHT22;9168;51.194;6.840;2023-07-08T10:21:55;29.50;93.40
18083;DHT22;9168;51.194;6.840;2023-07-08T10:24:41;29.70;93.10
18083;DHT22;9168;51.194;6.840;2023-07-08T10:27:15;30.10;92.80
18083;DHT22;9168;51.194;6.840;2023-07-08T10:29:52;30.40;91.90
18083;DHT22;9168;51.194;6.840;2023-07-08T10:32:28;30.70;92.60
18083;DHT22;9168;51.194;6.840;2023-07-08T10:35:08;31.00;91.70
18083;DHT22;9168;51.194;6.840;2023-07-08T10:37:47;31.30;91.20
18083;DHT22;9168;51.194;6.840;2023-07-08T10:40:31;31.50;90.90
18083;DHT22;9168;51.194;6.840;2023-07-08T10:43:23;31.90;90.50
18083;DHT22;9168;51.194;6.840;2023-07-08T10:46:03;32.20;89.00
18083;DHT22;9168;51.194;6.840;2023-07-08T10:48:50;32.50;88.90
18083;DHT22;9168;51.194;6.840;2023-07-08T10:51:23;32.70;89.20
18083;DHT22;9168;51.194;6.840;2023-07-08T10:54:18;33.10;89.50
18083;DHT22;9168;51.194;6.840;2023-07-08T10:56:52;33.50;87.20
18083;DHT22;9168;51.194;6.840;2023-07-08T10:59:36;33.70;87.00
18083;DHT22;9168;51.194;6.840;2023-07-08T11:05:16;34.30;84.70
18083;DHT22;9168;51.194;6.840;2023-07-08T11:07:47;34.60;83.50
18083;DHT22;9168;51.194;6.840;2023-07-08T11:10:23;34.70;83.70
18083;DHT22;9168;51.194;6.840;2023-07-08T11:12:59;35.10;85.00
18083;DHT22;9168;51.194;6.840;2023-07-08T11:15:31;35.30;83.80
18083;DHT22;9168;51.194;6.840;2023-07-08T11:18:03;35.50;82.10
18083;DHT22;9168;51.194;6.840;2023-07-08T11:20:38;35.70;81.90
18083;DHT22;9168;51.194;6.840;2023-07-08T11:23:12;35.80;79.10
18083;DHT22;9168;51.194;6.840;2023-07-08T11:25:45;35.90;79.90
18083;DHT22;9168;51.194;6.840;2023-07-08T11:28:18;36.10;80.60
18083;DHT22;9168;51.194;6.840;2023-07-08T11:30:47;35.90;76.70
18083;DHT22;9168;51.194;6.840;2023-07-08T11:33:18;36.00;78.00
18083;DHT22;9168;51.194;6.840;2023-07-08T11:35:49;36.10;78.20
18083;DHT22;9168;51.194;6.840;2023-07-08T11:38:20;36.30;78.40
18083;DHT22;9168;51.194;6.840;2023-07-08T11:40:53;36.50;78.00
18083;DHT22;9168;51.194;6.840;2023-07-08T11:43:23;36.40;74.60
18083;DHT22;9168;51.194;6.840;2023-07-08T11:45:50;36.30;72.60
18083;DHT22;9168;51.194;6.840;2023-07-08T11:48:23;36.30;74.90
18083;DHT22;9168;51.194;6.840;2023-07-08T11:50:51;36.40;75.10
18083;DHT22;9168;51.194;6.840;2023-07-08T11:53:36;36.50;74.80
18083;DHT22;9168;51.194;6.840;2023-07-08T11:56:19;36.50;73.70
18083;DHT22;9168;51.194;6.840;2023-07-08T11:58:59;36.30;72.80
18083;DHT22;9168;51.194;6.840;2023-07-08T12:01:37;36.40;75.30
18083;DHT22;9168;51.194;6.840;2023-07-08T12:04:17;36.50;76.90
18083;DHT22;9168;51.194;6.840;2023-07-08T12:06:48;36.50;75.10
18083;DHT22;9168;51.194;6.840;2023-07-08T12:09:23;36.60;78.20
18083;DHT22;9168;51.194;6.840;2023-07-08T12:11:57;36.50;73.10
18083;DHT22;9168;51.194;6.840;2023-07-08T12:14:28;36.40;74.90
18083;DHT22;9168;51.194;6.840;2023-07-08T12:16:56;36.40;71.70
18083;DHT22;9168;51.194;6.840;2023-07-08T12:19:25;36.30;71.50
18083;DHT22;9168;51.194;6.840;2023-07-08T12:21:52;36.40;74.20
18083;DHT22;9168;51.194;6.840;2023-07-08T12:24:19;36.40;73.20
18083;DHT22;9168;51.194;6.840;2023-07-08T12:26:52;36.60;72.90
18083;DHT22;9168;51.194;6.840;2023-07-08T12:29:20;36.50;70.50
18083;DHT22;9168;51.194;6.840;2023-07-08T12:31:47;36.40;70.70
18083;DHT22;9168;51.194;6.840;2023-07-08T12:34:15;36.50;71.30
18083;DHT22;9168;51.194;6.840;2023-07-08T12:36:43;36.60;73.00
18083;DHT22;9168;51.194;6.840;2023-07-08T12:39:13;36.70;72.00
18083;DHT22;9168;51.194;6.840;2023-07-08T12:41:43;36.90;72.50
18083;DHT22;9168;51.194;6.840;2023-07-08T12:44:16;36.90;72.10
18083;DHT22;9168;51.194;6.840;2023-07-08T12:46:47;37.00;71.60
18083;DHT22;9168;51.194;6.840;2023-07-08T12:49:15;37.20;73.50
18083;DHT22;9168;51.194;6.840;2023-07-08T12:51:43;37.20;69.80
18083;DHT22;9168;51.194;6.840;2023-07-08T12:54:10;37.30;68.40
18083;DHT22;9168;51.194;6.840;2023-07-08T12:56:38;37.40;70.90
18083;DHT22;9168;51.194;6.840;2023-07-08T12:59:06;37.10;67.60
18083;DHT22;9168;51.194;6.840;2023-07-08T13:01:35;37.00;69.50
18083;DHT22;9168;51.194;6.840;2023-07-08T13:04:06;37.10;71.30
18083;DHT22;9168;51.194;6.840;2023-07-08T13:06:37;37.10;70.10
18083;DHT22;9168;51.194;6.840;2023-07-08T13:09:22;37.30;68.70
18083;DHT22;9168;51.194;6.840;2023-07-08T13:11:50;37.40;67.50
18083;DHT22;9168;51.194;6.840;2023-07-08T13:14:19;37.50;66.10
18083;DHT22;9168;51.194;6.840;2023-07-08T13:16:47;37.60;67.30
18083;DHT22;9168;51.194;6.840;2023-07-08T13:19:16;37.70;67.10
18083;DHT22;9168;51.194;6.840;2023-07-08T13:21:44;37.70;65.60
18083;DHT22;9168;51.194;6.840;2023-07-08T13:24:12;37.70;66.50
18083;DHT22;9168;51.194;6.840;2023-07-08T13:26:40;37.80;67.50
18083;DHT22;9168;51.194;6.840;2023-07-08T13:29:13;37.60;64.60
18083;DHT22;9168;51.194;6.840;2023-07-08T13:31:44;37.50;65.80
18083;DHT22;9168;51.194;6.840;2023-07-08T13:34:18;37.60;66.80
18083;DHT22;9168;51.194;6.840;2023-07-08T13:36:49;37.70;64.70
18083;DHT22;9168;51.194;6.840;2023-07-08T13:39:21;37.50;62.60
18083;DHT22;9168;51.194;6.840;2023-07-08T13:41:49;37.20;62.40
18083;DHT22;9168;51.194;6.840;2023-07-08T13:44:16;37.20;65.10
18083;DHT22;9168;51.194;6.840;2023-07-08T13:46:50;37.40;62.60
18083;DHT22;9168;51.194;6.840;2023-07-08T13:49:24;37.40;63.80
18083;DHT22;9168;51.194;6.840;2023-07-08T13:52:05;37.30;62.40
18083;DHT22;9168;51.194;6.840;2023-07-08T13:54:34;37.40;62.50
18083;DHT22;9168;51.194;6.840;2023-07-08T13:57:09;37.30;63.00
18083;DHT22;9168;51.194;6.840;2023-07-08T13:59:36;37.30;61.40
18083;DHT22;9168;51.194;6.840;2023-07-08T14:02:14;37.10;62.10
18083;DHT22;9168;51.194;6.840;2023-07-08T14:04:44;36.90;62.30
18083;DHT22;9168;51.194;6.840;2023-07-08T14:07:16;36.70;61.70
18083;DHT22;9168;51.194;6.840;2023-07-08T14:09:43;36.60;61.30
18083;DHT22;9168;51.194;6.840;2023-07-08T14:12:10;36.60;64.20
18083;DHT22;9168;51.194;6.840;2023-07-08T14:14:37;36.60;61.50
18083;DHT22;9168;51.194;6.840;2023-07-08T14:17:05;36.60;63.90
18083;DHT22;9168;51.194;6.840;2023-07-08T14:19:34;36.60;63.00
18083;DHT22;9168;51.194;6.840;2023-07-08T14:22:20;36.50;62.70
18083;DHT22;9168;51.194;6.840;2023-07-08T14:24:47;36.60;62.50
18083;DHT22;9168;51.194;6.840;2023-07-08T14:27:14;36.40;62.90
18083;DHT22;9168;51.194;6.840;2023-07-08T14:29:45;36.30;62.60
18083;DHT22;9168;51.194;6.840;2023-07-08T14:32:13;36.10;62.50
18083;DHT22;9168;51.194;6.840;2023-07-08T14:34:41;35.90;62.10
18083;DHT22;9168;51.194;6.840;2023-07-08T14:37:13;35.90;62.50
18083;DHT22;9168;51.194;6.840;2023-07-08T14:39:42;35.90;64.80
18083;DHT22;9168;51.194;6.840;2023-07-08T14:42:11;35.90;65.00
18083;DHT22;9168;51.194;6.840;2023-07-08T14:44:39;36.00;65.90
18083;DHT22;9168;51.194;6.840;2023-07-08T14:47:08;36.00;63.80
18083;DHT22;9168;51.194;6.840;2023-07-08T14:49:36;36.00;66.60
18083;DHT22;9168;51.194;6.840;2023-07-08T14:52:04;35.90;69.20
18083;DHT22;9168;51.194;6.840;2023-07-08T14:54:33;35.70;69.40
18083;DHT22;9168;51.194;6.840;2023-07-08T14:57:00;35.60;67.60
18083;DHT22;9168;51.194;6.840;2023-07-08T14:59:30;35.30;63.60
18083;DHT22;9168;51.194;6.840;2023-07-08T15:01:59;35.10;64.40
18083;DHT22;9168;51.194;6.840;2023-07-08T15:04:27;35.00;66.10
18083;DHT22;9168;51.194;6.840;2023-07-08T15:06:54;34.80;66.00
18083;DHT22;9168;51.194;6.840;2023-07-08T15:09:23;34.80;65.50
18083;DHT22;9168;51.194;6.840;2023-07-08T15:11:52;34.60;65.60
18083;DHT22;9168;51.194;6.840;2023-07-08T15:14:20;34.40;66.60
18083;DHT22;9168;51.194;6.840;2023-07-08T15:16:48;34.30;67.00
18083;DHT22;9168;51.194;6.840;2023-07-08T15:19:16;34.20;68.30
18083;DHT22;9168;51.194;6.840;2023-07-08T15:21:44;34.20;68.60
18083;DHT22;9168;51.194;6.840;2023-07-08T15:24:12;34.10;70.70
18083;DHT22;9168;51.194;6.840;2023-07-08T15:26:40;34.00;68.40
18083;DHT22;9168;51.194;6.840;2023-07-08T15:29:13;33.90;70.90
18083;DHT22;9168;51.194;6.840;2023-07-08T15:31:40;33.80;75.40
18083;DHT22;9168;51.194;6.840;2023-07-08T15:34:11;33.70;71.30
18083;DHT22;9168;51.194;6.840;2023-07-08T15:36:40;33.70;68.70
18083;DHT22;9168;51.194;6.840;2023-07-08T15:39:07;33.60;72.30
18083;DHT22;9168;51.194;6.840;2023-07-08T15:41:34;33.60;75.30
18083;DHT22;9168;51.194;6.840;2023-07-08T15:44:02;33.60;77.60
18083;DHT22;9168;51.194;6.840;2023-07-08T15:46:32;33.50;74.70
18083;DHT22;9168;51.194;6.840;2023-07-08T15:49:00;33.50;74.60
18083;DHT22;9168;51.194;6.840;2023-07-08T15:51:27;33.50;74.70
18083;DHT22;9168;51.194;6.840;2023-07-08T15:53:54;33.40;77.40
18083;DHT22;9168;51.194;6.840;2023-07-08T15:56:21;33.40;78.00
18083;DHT22;9168;51.194;6.840;2023-07-08T15:58:49;33.40;79.10
18083;DHT22;9168;51.194;6.840;2023-07-08T16:01:18;33.40;74.40
18083;DHT22;9168;51.194;6.840;2023-07-08T16:03:48;33.40;76.50